Fantasy — H3GS — position and weather

sailwx.info

Track history (hours):
 
Tides and Currents Weather Stations Pressure Air Temp Water Temp Dewpoint Dewpoint Depression Visibility Wind Speed Wind Dir Waves Ship Positions

Fantasy

Operator: Carnival Cruise Lines

Last reported at 2016-May-02 22:30 UTC. Time now 2016-May-04 01:56 UTC.
Position N 25°36' W 079°57'.

Type: Ship. MMSI: 353486000.

Date/timePositionNaut miles runAvg speedWind from/ knotsBaromVisibWave heightAir tempDewpointWater temp
2016-May-02 22:30N 25°36' W 079°57'1010.5
2016-May-02 21:33N 25°45' W 080°02'7 6.7
2016-May-02 20:32N 25°47' W 080°10'0 0.0
2016-May-02 12:08N 25°47' W 080°10'0 0.0
2016-May-02 10:29N 25°47' W 080°10'0 0.1
2016-May-02 09:33N 25°47' W 080°10'8 8.4
2016-May-02 08:34N 25°48' W 080°01'7 7.0
2016-May-02 07:34N 25°52' W 079°54'7 7.4
2016-May-02 06:33N 25°55' W 079°47'8 7.7
2016-May-02 05:33N 26°00' W 079°40'8 7.9
2016-May-02 04:33N 26°05' W 079°34'8 8.1
2016-May-02 03:33N 26°10' W 079°26'6710.2
2016-May-01 21:00N 26°06' W 078°12'49 1.4 090 / 151016.010.8 1.026.024.627.0
2016-Apr-30 10:16N 25°36' W 077°29'10711.0
2016-Apr-30 00:33N 26°08' W 079°22'1615.8
2016-Apr-29 23:33N 26°00' W 079°37'1616.1
2016-Apr-29 22:33N 25°53' W 079°53'1414.1
2016-Apr-29 21:33N 25°45' W 080°06'4 3.0
2016-Apr-29 20:22N 25°47' W 080°10'0 0.0
2016-Apr-29 19:27N 25°47' W 080°10'0 0.0
2016-Apr-29 18:24N 25°47' W 080°10'0 0.0
2016-Apr-29 17:32N 25°47' W 080°10'0 0.0
2016-Apr-29 16:33N 25°47' W 080°10'0 0.0
2016-Apr-29 15:24N 25°47' W 080°10'0 0.0
2016-Apr-29 14:32N 25°47' W 080°10'0 0.0
2016-Apr-29 13:29N 25°47' W 080°10'0 0.0
2016-Apr-29 12:19N 25°47' W 080°10'0 0.0
2016-Apr-29 11:28N 25°47' W 080°10'1 1.2
2016-Apr-29 10:33N 25°46' W 080°09'9 8.7
2016-Apr-29 09:33N 25°45' W 079°60'24615.4
2016-Apr-28 17:33N 23°12' W 083°32'1816.2
2016-Apr-28 16:28N 23°05' W 083°49'1616.3
2016-Apr-28 15:31N 22°59' W 084°05'6117.4
2016-Apr-28 12:00N 22°18' W 084°54'5719.1 120 / 211013.010.8 0.526.023.128.1
2016-Apr-28 09:00N 21°36' W 085°36'9118.5 130 / 231010.010.8 0.526.023.128.2
2016-Apr-28 04:04N 20°40' W 086°53'816.5
2016-Apr-28 03:33N 20°33' W 086°58'4 4.0
2016-Apr-28 02:26N 20°29' W 086°59'0 0.0
2016-Apr-28 01:33N 20°29' W 086°59'0 0.0
2016-Apr-28 00:31N 20°29' W 086°59'0 0.0
2016-Apr-27 23:31N 20°29' W 086°59'0 0.0
2016-Apr-27 22:33N 20°29' W 086°59'0 0.0
2016-Apr-27 21:33N 20°29' W 086°59'0 0.0
2016-Apr-27 20:32N 20°29' W 086°59'0 0.0
2016-Apr-27 19:32N 20°29' W 086°59'0 0.0
2016-Apr-27 18:28N 20°29' W 086°59'0 0.0
2016-Apr-27 17:31N 20°29' W 086°59'0 0.0
2016-Apr-27 16:33N 20°29' W 086°59'2 1.7
2016-Apr-27 15:33N 20°30' W 086°59'32217.3
2016-Apr-26 21:00N 23°54' W 082°30'175 7.4 100 / 171012.010.8 0.527.024.127.9
2016-Apr-25 21:33N 25°41' W 079°58'1110.5
2016-Apr-25 20:32N 25°46' W 080°09'1 1.1
2016-Apr-25 19:31N 25°47' W 080°10'0 0.0
2016-Apr-25 18:24N 25°47' W 080°10'0 0.0
2016-Apr-25 17:33N 25°47' W 080°10'0 0.0
2016-Apr-25 16:26N 25°47' W 080°10'0 0.0
2016-Apr-25 15:17N 25°47' W 080°10'0 0.0
2016-Apr-25 13:19N 25°47' W 080°10'0 0.0
2016-Apr-25 11:21N 25°47' W 080°10'0 0.0
2016-Apr-25 10:30N 25°47' W 080°10'1 1.1
2016-Apr-25 09:33N 25°46' W 080°09'9 8.8
2016-Apr-25 08:33N 25°49' W 079°60'8 8.0
2016-Apr-25 07:33N 25°53' W 079°53'7 7.5
2016-Apr-25 06:33N 25°59' W 079°47'7 7.4
2016-Apr-25 05:33N 26°05' W 079°42'8 7.9
2016-Apr-25 04:34N 26°11' W 079°37'12 8.8
2016-Apr-25 03:09N 26°21' W 079°28'13 0.3
2016-Apr-23 00:33N 26°09' W 079°21'1615.7
2016-Apr-22 23:33N 26°02' W 079°37'1616.3
2016-Apr-22 22:33N 25°53' W 079°52'  
Track history (hours):
 
Tides and Currents Weather Stations Pressure Air Temp Water Temp Dewpoint Dewpoint Depression Visibility Wind Speed Wind Dir Waves Ship Positions

Fantasy

Operator: Carnival Cruise Lines

Last reported at 2016-May-02 22:30 UTC. Time now 2016-May-04 01:56 UTC.
Position N 25°36' W 079°57'.

Type: Ship. MMSI: 353486000.

Date/timePositionNaut miles runAvg speedWind from/ knotsBaromVisibWave heightAir tempDewpointWater temp
2016-May-02 22:30N 25°36' W 079°57'1010.5
2016-May-02 21:33N 25°45' W 080°02'7 6.7
2016-May-02 20:32N 25°47' W 080°10'0 0.0
2016-May-02 12:08N 25°47' W 080°10'0 0.0
2016-May-02 10:29N 25°47' W 080°10'0 0.1
2016-May-02 09:33N 25°47' W 080°10'8 8.4
2016-May-02 08:34N 25°48' W 080°01'7 7.0
2016-May-02 07:34N 25°52' W 079°54'7 7.4
2016-May-02 06:33N 25°55' W 079°47'8 7.7
2016-May-02 05:33N 26°00' W 079°40'8 7.9
2016-May-02 04:33N 26°05' W 079°34'8 8.1
2016-May-02 03:33N 26°10' W 079°26'6710.2
2016-May-01 21:00N 26°06' W 078°12'49 1.4 090 / 151016.010.8 1.026.024.627.0
2016-Apr-30 10:16N 25°36' W 077°29'10711.0
2016-Apr-30 00:33N 26°08' W 079°22'1615.8
2016-Apr-29 23:33N 26°00' W 079°37'1616.1
2016-Apr-29 22:33N 25°53' W 079°53'1414.1
2016-Apr-29 21:33N 25°45' W 080°06'4 3.0
2016-Apr-29 20:22N 25°47' W 080°10'0 0.0
2016-Apr-29 19:27N 25°47' W 080°10'0 0.0
2016-Apr-29 18:24N 25°47' W 080°10'0 0.0
2016-Apr-29 17:32N 25°47' W 080°10'0 0.0
2016-Apr-29 16:33N 25°47' W 080°10'0 0.0
2016-Apr-29 15:24N 25°47' W 080°10'0 0.0
2016-Apr-29 14:32N 25°47' W 080°10'0 0.0
2016-Apr-29 13:29N 25°47' W 080°10'0 0.0
2016-Apr-29 12:19N 25°47' W 080°10'0 0.0
2016-Apr-29 11:28N 25°47' W 080°10'1 1.2
2016-Apr-29 10:33N 25°46' W 080°09'9 8.7
2016-Apr-29 09:33N 25°45' W 079°60'24615.4
2016-Apr-28 17:33N 23°12' W 083°32'1816.2
2016-Apr-28 16:28N 23°05' W 083°49'1616.3
2016-Apr-28 15:31N 22°59' W 084°05'6117.4
2016-Apr-28 12:00N 22°18' W 084°54'5719.1 120 / 211013.010.8 0.526.023.128.1
2016-Apr-28 09:00N 21°36' W 085°36'9118.5 130 / 231010.010.8 0.526.023.128.2
2016-Apr-28 04:04N 20°40' W 086°53'816.5
2016-Apr-28 03:33N 20°33' W 086°58'4 4.0
2016-Apr-28 02:26N 20°29' W 086°59'0 0.0
2016-Apr-28 01:33N 20°29' W 086°59'0 0.0
2016-Apr-28 00:31N 20°29' W 086°59'0 0.0
2016-Apr-27 23:31N 20°29' W 086°59'0 0.0
2016-Apr-27 22:33N 20°29' W 086°59'0 0.0
2016-Apr-27 21:33N 20°29' W 086°59'0 0.0
2016-Apr-27 20:32N 20°29' W 086°59'0 0.0
2016-Apr-27 19:32N 20°29' W 086°59'0 0.0
2016-Apr-27 18:28N 20°29' W 086°59'0 0.0
2016-Apr-27 17:31N 20°29' W 086°59'0 0.0
2016-Apr-27 16:33N 20°29' W 086°59'2 1.7
2016-Apr-27 15:33N 20°30' W 086°59'32217.3
2016-Apr-26 21:00N 23°54' W 082°30'175 7.4 100 / 171012.010.8 0.527.024.127.9
2016-Apr-25 21:33N 25°41' W 079°58'1110.5
2016-Apr-25 20:32N 25°46' W 080°09'1 1.1
2016-Apr-25 19:31N 25°47' W 080°10'0 0.0
2016-Apr-25 18:24N 25°47' W 080°10'0 0.0
2016-Apr-25 17:33N 25°47' W 080°10'0 0.0
2016-Apr-25 16:26N 25°47' W 080°10'0 0.0
2016-Apr-25 15:17N 25°47' W 080°10'0 0.0
2016-Apr-25 13:19N 25°47' W 080°10'0 0.0
2016-Apr-25 11:21N 25°47' W 080°10'0 0.0
2016-Apr-25 10:30N 25°47' W 080°10'1 1.1
2016-Apr-25 09:33N 25°46' W 080°09'9 8.8
2016-Apr-25 08:33N 25°49' W 079°60'8 8.0
2016-Apr-25 07:33N 25°53' W 079°53'7 7.5
2016-Apr-25 06:33N 25°59' W 079°47'7 7.4
2016-Apr-25 05:33N 26°05' W 079°42'8 7.9
2016-Apr-25 04:34N 26°11' W 079°37'12 8.8
2016-Apr-25 03:09N 26°21' W 079°28'13 0.3
2016-Apr-23 00:33N 26°09' W 079°21'1615.7
2016-Apr-22 23:33N 26°02' W 079°37'1616.3
2016-Apr-22 22:33N 25°53' W 079°52'  

Dump ship's entire track history